Time;durP1;ratioP1;P1;durP2;ratioP2;P2;SDS_P1;SDS_P2;PMS_P1;PMS_P2;Temp;Humidity;BMP_temperature;BMP_pressure;BME280_temperature;BME280_humidity;BME280_pressure;Samples;Min_cycle;Max_cycle;Signal;HPM_P1;HPM_P2
2023/12/08 00:00:32;;;;;;;22.25;11.13;;;3.50;99.90;;;;;;4968390;28;20042;-62
2023/12/08 00:02:58;;;;;;;23.50;11.60;;;3.60;99.90;;;;;;4972131;28;20038;-62
2023/12/08 00:05:23;;;;;;;25.80;11.38;;;3.60;99.90;;;;;;4970045;28;20039;-61
2023/12/08 00:07:49;;;;;;;23.17;11.55;;;3.60;99.90;;;;;;4971250;28;20034;-62
2023/12/08 00:10:15;;;;;;;20.05;9.93;;;3.70;99.90;;;;;;4971239;28;20150;-63
2023/12/08 00:12:40;;;;;;;22.20;9.85;;;3.70;99.90;;;;;;4971269;28;20094;-60
2023/12/08 00:15:06;;;;;;;24.15;10.73;;;3.70;99.90;;;;;;4970122;28;20219;-60
2023/12/08 00:17:32;;;;;;;20.67;10.02;;;3.70;99.90;;;;;;4967897;28;20076;-62
2023/12/08 00:19:57;;;;;;;22.13;10.45;;;3.70;99.90;;;;;;4971103;28;20071;-60
2023/12/08 00:22:23;;;;;;;24.85;10.18;;;3.70;99.90;;;;;;4969243;28;20074;-61
2023/12/08 00:24:49;;;;;;;19.55;10.10;;;3.80;99.90;;;;;;4971396;28;20548;-61
2023/12/08 00:27:14;;;;;;;24.63;10.02;;;3.80;99.90;;;;;;4969773;28;20039;-61
2023/12/08 00:29:40;;;;;;;22.50;10.35;;;3.80;99.90;;;;;;4964141;28;20041;-61
2023/12/08 00:32:06;;;;;;;18.80;9.25;;;3.80;99.90;;;;;;4969738;28;20030;-60
2023/12/08 00:34:31;;;;;;;17.63;9.73;;;3.80;99.90;;;;;;4970712;28;20056;-67
2023/12/08 00:36:57;;;;;;;25.65;10.95;;;3.80;99.90;;;;;;4965530;28;20038;-61
2023/12/08 00:39:23;;;;;;;16.77;8.40;;;3.90;99.90;;;;;;4969287;28;20089;-62
2023/12/08 00:41:49;;;;;;;19.77;9.50;;;3.80;99.90;;;;;;4970343;28;20485;-62
2023/12/08 00:44:14;;;;;;;19.98;9.88;;;3.90;99.90;;;;;;4969735;28;20061;-61
2023/12/08 00:46:40;;;;;;;19.20;9.98;;;3.90;99.90;;;;;;4969122;28;20027;-61
2023/12/08 00:49:05;;;;;;;20.00;10.02;;;3.90;99.90;;;;;;4964725;28;20093;-62
2023/12/08 00:51:31;;;;;;;23.05;9.48;;;3.90;99.90;;;;;;4975699;28;20039;-62
2023/12/08 00:53:56;;;;;;;21.08;9.45;;;3.90;99.90;;;;;;4970949;28;20023;-61
2023/12/08 00:56:22;;;;;;;20.80;9.80;;;3.90;99.90;;;;;;4970956;28;20047;-62
2023/12/08 00:58:47;;;;;;;21.20;9.32;;;3.90;99.90;;;;;;4967760;28;20037;-62
2023/12/08 01:01:13;;;;;;;19.98;10.00;;;3.80;99.90;;;;;;4969070;28;20113;-60
2023/12/08 01:03:38;;;;;;;21.50;10.82;;;3.90;99.90;;;;;;4968538;28;20485;-60
2023/12/08 01:06:04;;;;;;;24.00;9.95;;;3.90;99.90;;;;;;4964528;28;20019;-62
2023/12/08 01:08:30;;;;;;;23.60;10.25;;;3.90;99.90;;;;;;4968606;28;20070;-62
2023/12/08 01:10:55;;;;;;;18.85;9.52;;;3.90;99.90;;;;;;4964564;28;20444;-62
2023/12/08 01:13:21;;;;;;;19.30;9.98;;;3.90;99.90;;;;;;4969854;28;20038;-62
2023/12/08 01:15:47;;;;;;;19.15;10.02;;;3.80;99.90;;;;;;4969196;28;20015;-61
2023/12/08 01:18:13;;;;;;;25.77;10.30;;;3.90;99.90;;;;;;4967201;28;20057;-61
2023/12/08 01:20:38;;;;;;;23.75;9.80;;;3.90;99.90;;;;;;4964793;28;20711;-64
2023/12/08 01:23:04;;;;;;;25.02;10.60;;;3.90;99.90;;;;;;4970336;28;20061;-61
2023/12/08 01:25:29;;;;;;;22.35;9.57;;;3.90;99.90;;;;;;4964632;28;20038;-61
2023/12/08 01:27:55;;;;;;;23.00;11.18;;;3.90;99.90;;;;;;4969026;28;20069;-60
2023/12/08 01:30:21;;;;;;;22.75;11.40;;;4.00;99.90;;;;;;4968734;28;20038;-61
2023/12/08 01:32:46;;;;;;;22.52;11.05;;;4.00;99.90;;;;;;4969096;28;20019;-62
2023/12/08 01:35:12;;;;;;;19.83;10.82;;;4.00;99.90;;;;;;4969383;28;21399;-61
2023/12/08 01:37:37;;;;;;;19.45;9.90;;;4.00;99.90;;;;;;4965680;28;20512;-61
2023/12/08 01:40:03;;;;;;;21.92;11.13;;;4.10;99.90;;;;;;4969795;28;20102;-61
2023/12/08 01:42:29;;;;;;;18.77;10.55;;;4.00;99.90;;;;;;4968931;28;20063;-60
2023/12/08 01:44:55;;;;;;;23.38;11.60;;;4.10;99.90;;;;;;4972960;28;20034;-63
2023/12/08 01:47:21;;;;;;;20.42;11.50;;;4.00;99.90;;;;;;4970701;28;20054;-64
2023/12/08 01:49:46;;;;;;;22.88;11.23;;;4.00;99.90;;;;;;4964715;28;20026;-62
2023/12/08 01:52:21;;;;;;;25.63;11.65;;;3.90;99.90;;;;;;4970139;28;20137;-61
2023/12/08 01:54:48;;;;;;;26.42;12.57;;;4.00;99.90;;;;;;4964188;28;20023;-61
2023/12/08 01:57:14;;;;;;;23.30;11.85;;;3.90;99.90;;;;;;4968794;28;20023;-61
2023/12/08 01:59:39;;;;;;;26.65;12.75;;;3.80;99.90;;;;;;4963230;28;20034;-61
2023/12/08 02:02:05;;;;;;;27.23;11.60;;;3.70;99.90;;;;;;4969264;28;20042;-61
2023/12/08 02:04:30;;;;;;;24.10;12.88;;;3.80;99.90;;;;;;4971480;28;20082;-61
2023/12/08 02:06:57;;;;;;;22.75;12.30;;;3.70;99.90;;;;;;4974206;28;20030;-61
2023/12/08 02:09:23;;;;;;;22.40;11.07;;;3.70;99.90;;;;;;4971194;28;20038;-60
2023/12/08 02:11:49;;;;;;;25.92;12.77;;;3.70;99.90;;;;;;4968923;28;20488;-61
2023/12/08 02:14:15;;;;;;;25.90;11.80;;;3.70;99.90;;;;;;4972872;28;20027;-59
2023/12/08 02:16:52;;;;;;;21.50;11.07;;;3.70;99.90;;;;;;4973546;28;20062;-61
2023/12/08 02:19:18;;;;;;;21.38;11.10;;;3.70;99.90;;;;;;4969960;28;20034;-61
2023/12/08 02:21:44;;;;;;;26.88;12.80;;;3.70;99.90;;;;;;4966834;28;20100;-61
2023/12/08 02:24:10;;;;;;;24.00;11.80;;;3.70;99.90;;;;;;4972992;28;20085;-61
2023/12/08 02:26:36;;;;;;;22.02;11.35;;;3.70;99.90;;;;;;4967344;28;20492;-61
2023/12/08 02:29:01;;;;;;;26.00;12.10;;;3.70;99.90;;;;;;4969956;28;20132;-61
2023/12/08 02:31:45;;;;;;;22.98;11.13;;;3.60;99.90;;;;;;4966974;28;20046;-61
2023/12/08 02:34:14;;;;;;;21.23;10.93;;;3.60;99.90;;;;;;4971542;28;20019;-61
2023/12/08 02:36:41;;;;;;;25.77;11.50;;;3.70;99.90;;;;;;4969824;28;20102;-61
2023/12/08 02:39:09;;;;;;;25.30;10.25;;;3.60;99.90;;;;;;4969543;28;20033;-61
2023/12/08 02:41:34;;;;;;;25.08;11.60;;;3.60;99.90;;;;;;4966416;28;20451;-61
2023/12/08 02:44:00;;;;;;;26.80;12.93;;;3.70;99.90;;;;;;4972965;28;20098;-62
2023/12/08 02:46:25;;;;;;;22.10;11.15;;;3.70;99.90;;;;;;4970942;28;20118;-62
2023/12/08 02:48:51;;;;;;;25.25;10.27;;;3.70;99.90;;;;;;4971736;28;20064;-60
2023/12/08 02:51:16;;;;;;;22.30;10.20;;;3.70;99.90;;;;;;4972854;28;20473;-60
2023/12/08 02:53:42;;;;;;;24.88;11.18;;;3.70;99.90;;;;;;4973935;28;20031;-61
2023/12/08 02:56:08;;;;;;;24.00;11.10;;;3.70;99.90;;;;;;4968026;28;20042;-61
2023/12/08 02:58:34;;;;;;;19.85;10.52;;;3.60;99.90;;;;;;4971936;28;20085;-59
2023/12/08 03:00:59;;;;;;;22.98;10.70;;;3.50;99.90;;;;;;4971853;28;20055;-61
2023/12/08 03:03:25;;;;;;;25.52;11.30;;;3.50;99.90;;;;;;4968831;28;20972;-62
2023/12/08 03:05:50;;;;;;;29.15;12.25;;;3.50;99.90;;;;;;4962347;28;20042;-63
2023/12/08 03:08:16;;;;;;;35.50;13.27;;;3.50;99.90;;;;;;4971691;28;20034;-61
2023/12/08 03:10:41;;;;;;;26.23;12.95;;;3.50;99.90;;;;;;4966161;28;20042;-60
2023/12/08 03:13:07;;;;;;;24.17;11.55;;;3.50;99.90;;;;;;4971560;28;20016;-60
2023/12/08 03:15:32;;;;;;;25.17;11.18;;;3.50;99.90;;;;;;4971282;28;20477;-61
2023/12/08 03:17:58;;;;;;;23.80;12.13;;;3.50;99.90;;;;;;4970747;28;20117;-61
2023/12/08 03:20:24;;;;;;;28.25;13.10;;;3.50;99.90;;;;;;4971461;28;20034;-62
2023/12/08 03:22:49;;;;;;;26.48;12.80;;;3.50;99.90;;;;;;4970338;28;20482;-60
2023/12/08 03:25:15;;;;;;;28.75;14.32;;;3.60;99.90;;;;;;4968415;28;20410;-61
2023/12/08 03:27:40;;;;;;;27.65;13.55;;;3.50;99.90;;;;;;4971475;28;20705;-62
2023/12/08 03:30:06;;;;;;;25.60;12.43;;;3.50;99.90;;;;;;4968998;28;20397;-61
2023/12/08 03:32:32;;;;;;;26.25;12.50;;;3.40;99.90;;;;;;4971603;28;20034;-61
2023/12/08 03:34:58;;;;;;;26.17;12.02;;;3.40;99.90;;;;;;4969879;28;20046;-60
2023/12/08 03:37:23;;;;;;;30.60;12.95;;;3.40;99.90;;;;;;4970318;28;20057;-59
2023/12/08 03:39:49;;;;;;;33.40;13.65;;;3.40;99.90;;;;;;4969865;28;20676;-61
2023/12/08 03:42:14;;;;;;;31.70;13.52;;;3.30;99.90;;;;;;4970855;28;20503;-61
2023/12/08 03:44:40;;;;;;;29.98;13.13;;;3.30;99.90;;;;;;4971734;28;20042;-59
2023/12/08 03:47:05;;;;;;;26.88;13.82;;;3.20;99.90;;;;;;4966805;28;20038;-61
2023/12/08 03:49:31;;;;;;;29.08;14.88;;;3.20;99.90;;;;;;4969566;28;20045;-60
2023/12/08 03:51:56;;;;;;;33.50;13.88;;;3.20;99.90;;;;;;4968282;28;20019;-61
2023/12/08 03:54:22;;;;;;;29.27;13.63;;;3.20;99.90;;;;;;4971146;28;20027;-61
2023/12/08 03:56:47;;;;;;;28.95;14.00;;;3.20;99.90;;;;;;4977580;28;20045;-61
2023/12/08 03:59:13;;;;;;;33.03;15.20;;;3.10;99.90;;;;;;4970638;28;20031;-61
2023/12/08 04:01:38;;;;;;;29.70;13.50;;;3.10;99.90;;;;;;4970156;28;20022;-61
2023/12/08 04:04:04;;;;;;;33.35;15.75;;;3.10;99.90;;;;;;4968953;28;20019;-60
2023/12/08 04:06:29;;;;;;;38.90;14.07;;;3.10;99.90;;;;;;4966742;28;20035;-59
2023/12/08 04:08:55;;;;;;;30.30;15.18;;;3.00;99.90;;;;;;4969953;28;20110;-61
2023/12/08 04:11:21;;;;;;;32.53;14.38;;;3.00;99.90;;;;;;4969953;28;20237;-61
2023/12/08 04:13:46;;;;;;;36.90;16.17;;;2.90;99.90;;;;;;4970663;28;20027;-61
2023/12/08 04:16:14;;;;;;;29.80;14.43;;;2.90;99.90;;;;;;4967815;28;20041;-60
2023/12/08 04:18:39;;;;;;;40.25;16.67;;;2.90;99.90;;;;;;4970010;28;20058;-62
2023/12/08 04:21:05;;;;;;;32.42;15.57;;;3.00;99.90;;;;;;4966923;28;20026;-62
2023/12/08 04:23:31;;;;;;;32.50;16.75;;;3.00;99.90;;;;;;4969928;28;20041;-62
2023/12/08 04:25:56;;;;;;;34.80;17.15;;;3.00;99.90;;;;;;4969617;28;20034;-60
2023/12/08 04:28:22;;;;;;;40.88;17.88;;;3.00;99.90;;;;;;4968742;28;20096;-62
2023/12/08 04:30:47;;;;;;;42.80;19.08;;;3.00;99.90;;;;;;4965956;28;20027;-61
2023/12/08 04:33:13;;;;;;;37.58;17.27;;;3.00;99.90;;;;;;4965823;28;20042;-61
2023/12/08 04:35:38;;;;;;;34.22;16.55;;;3.00;99.90;;;;;;4965510;28;20026;-62
2023/12/08 04:38:04;;;;;;;33.97;16.90;;;3.00;99.90;;;;;;4968460;28;20412;-61
2023/12/08 04:40:30;;;;;;;41.72;19.35;;;3.00;99.90;;;;;;4969375;28;20038;-61
2023/12/08 04:42:55;;;;;;;48.50;19.02;;;3.00;99.90;;;;;;4969399;28;20023;-62
2023/12/08 04:45:21;;;;;;;43.30;18.95;;;3.00;99.90;;;;;;4969272;28;20150;-62
2023/12/08 04:47:46;;;;;;;49.53;20.05;;;3.00;99.90;;;;;;4969639;28;20037;-61
2023/12/08 04:50:12;;;;;;;44.28;17.90;;;3.00;99.90;;;;;;4967146;28;20021;-61
2023/12/08 04:52:37;;;;;;;48.55;18.58;;;3.00;99.90;;;;;;4969401;28;20109;-61
2023/12/08 04:55:07;;;;;;;42.55;18.00;;;2.90;99.90;;;;;;4967839;28;20022;-61
2023/12/08 04:57:32;;;;;;;41.95;18.88;;;2.90;99.90;;;;;;4966021;28;20401;-61
2023/12/08 04:59:58;;;;;;;44.38;19.13;;;2.90;99.90;;;;;;4964970;28;20034;-62
2023/12/08 05:02:24;;;;;;;45.20;20.02;;;2.90;99.90;;;;;;4968692;28;20031;-62
2023/12/08 05:04:49;;;;;;;43.80;18.08;;;3.00;99.90;;;;;;4967253;28;20549;-62
2023/12/08 05:07:15;;;;;;;44.50;19.92;;;2.90;99.90;;;;;;4967467;28;20071;-62
2023/12/08 05:09:41;;;;;;;50.22;18.70;;;2.90;99.90;;;;;;4967545;28;20026;-62
2023/12/08 05:12:06;;;;;;;47.63;20.00;;;2.90;99.90;;;;;;4965090;28;20093;-62
2023/12/08 05:14:32;;;;;;;48.08;20.35;;;2.90;99.90;;;;;;4963212;28;20074;-62
2023/12/08 05:16:57;;;;;;;50.45;19.20;;;3.00;99.90;;;;;;4965058;28;20027;-63
2023/12/08 05:19:23;;;;;;;49.20;20.35;;;3.10;99.90;;;;;;4965302;28;20113;-62
2023/12/08 05:21:48;;;;;;;47.67;20.35;;;3.10;99.90;;;;;;4967435;28;20031;-62
2023/12/08 05:24:14;;;;;;;52.08;21.05;;;3.00;99.90;;;;;;4967154;28;20030;-62
2023/12/08 05:26:39;;;;;;;48.70;21.90;;;3.00;99.90;;;;;;4965990;28;20109;-62
2023/12/08 05:29:05;;;;;;;47.55;20.88;;;3.00;99.90;;;;;;4966823;28;20062;-63
2023/12/08 05:31:30;;;;;;;45.28;20.50;;;3.00;99.90;;;;;;4964729;28;20035;-61
2023/12/08 05:33:56;;;;;;;47.30;19.05;;;3.00;99.90;;;;;;4967702;28;20026;-61
2023/12/08 05:36:21;;;;;;;46.03;19.73;;;3.00;99.90;;;;;;4966956;28;20045;-62
2023/12/08 05:38:47;;;;;;;49.92;21.27;;;3.00;99.90;;;;;;4965753;28;20054;-62
2023/12/08 05:41:12;;;;;;;47.83;21.58;;;3.00;99.90;;;;;;4972851;28;20074;-61
2023/12/08 05:43:38;;;;;;;41.50;20.92;;;3.00;99.90;;;;;;4973673;28;20026;-61
2023/12/08 05:46:04;;;;;;;45.38;20.17;;;3.10;99.90;;;;;;4973836;28;20030;-63
2023/12/08 05:48:29;;;;;;;43.90;21.33;;;3.10;99.90;;;;;;4972682;28;20038;-62
2023/12/08 05:50:55;;;;;;;46.60;21.00;;;3.10;99.90;;;;;;4971506;28;20027;-62
2023/12/08 05:53:20;;;;;;;47.72;21.05;;;3.10;99.90;;;;;;4972040;28;20094;-62
2023/12/08 05:55:46;;;;;;;43.63;20.98;;;3.10;99.90;;;;;;4967564;28;20100;-61
2023/12/08 05:58:12;;;;;;;48.70;21.50;;;3.10;99.90;;;;;;4973077;28;20034;-61
2023/12/08 06:00:37;;;;;;;48.10;21.73;;;3.20;99.90;;;;;;4968377;28;20102;-62
2023/12/08 06:03:03;;;;;;;53.58;22.27;;;3.20;99.90;;;;;;4968776;28;20035;-62
2023/12/08 06:05:28;;;;;;;61.90;24.23;;;3.20;99.90;;;;;;4970190;28;20038;-62
2023/12/08 06:07:54;;;;;;;51.40;23.13;;;3.10;99.90;;;;;;4968022;28;20026;-62
2023/12/08 06:10:21;;;;;;;46.95;22.48;;;3.10;99.90;;;;;;4969744;28;20034;-62
2023/12/08 06:12:47;;;;;;;47.67;21.55;;;3.10;99.90;;;;;;4969124;28;20042;-61
2023/12/08 06:15:12;;;;;;;46.97;23.15;;;3.20;99.90;;;;;;4970044;28;20697;-62
2023/12/08 06:17:38;;;;;;;54.28;23.30;;;3.20;99.90;;;;;;4969201;28;21617;-61
2023/12/08 06:20:04;;;;;;;56.10;23.77;;;3.20;99.90;;;;;;4965127;28;20027;-62
2023/12/08 06:22:30;;;;;;;56.65;23.38;;;3.10;99.90;;;;;;4971327;28;20066;-62
2023/12/08 06:24:56;;;;;;;55.60;23.63;;;3.10;99.90;;;;;;4971285;28;20042;-62
2023/12/08 06:27:22;;;;;;;53.50;23.45;;;3.20;99.90;;;;;;4971999;28;20030;-62
2023/12/08 06:29:50;;;;;;;52.75;22.42;;;3.20;99.90;;;;;;4969008;28;20056;-62
2023/12/08 06:32:15;;;;;;;51.42;23.33;;;3.20;99.90;;;;;;4972738;28;20025;-61
2023/12/08 06:34:41;;;;;;;55.25;24.38;;;3.20;99.90;;;;;;4972207;28;20031;-61
2023/12/08 06:37:07;;;;;;;51.00;22.90;;;3.20;99.90;;;;;;4972950;28;20030;-61
2023/12/08 06:39:32;;;;;;;51.80;21.50;;;3.20;99.90;;;;;;4969542;28;20042;-62
2023/12/08 06:41:57;;;;;;;56.30;24.23;;;3.30;99.90;;;;;;4970185;28;20035;-61
2023/12/08 06:44:23;;;;;;;49.65;21.80;;;3.20;99.90;;;;;;4973428;28;20048;-62
2023/12/08 06:46:49;;;;;;;54.22;22.20;;;3.20;99.90;;;;;;4970286;28;20097;-61
2023/12/08 06:49:14;;;;;;;52.85;23.15;;;3.30;99.90;;;;;;4975306;28;20033;-61
2023/12/08 06:51:39;;;;;;;48.50;21.83;;;3.20;99.90;;;;;;4972633;28;20054;-61
2023/12/08 06:54:05;;;;;;;57.92;22.95;;;3.20;99.90;;;;;;4971022;28;20497;-62
2023/12/08 06:56:31;;;;;;;50.83;22.00;;;3.30;99.90;;;;;;4973063;28;20077;-61
2023/12/08 06:58:57;;;;;;;56.63;24.02;;;3.30;99.90;;;;;;4966845;28;20039;-62
2023/12/08 07:01:22;;;;;;;57.70;24.67;;;3.30;99.90;;;;;;4971479;28;20085;-62
2023/12/08 07:03:48;;;;;;;53.85;22.55;;;3.30;99.90;;;;;;4968814;28;20039;-61
2023/12/08 07:06:14;;;;;;;58.85;23.23;;;3.30;99.90;;;;;;4970939;28;20050;-61
2023/12/08 07:08:39;;;;;;;52.40;22.27;;;3.30;99.90;;;;;;4967437;28;20467;-60
2023/12/08 07:11:05;;;;;;;47.55;22.60;;;3.40;99.90;;;;;;4970408;28;20023;-62
2023/12/08 07:13:30;;;;;;;58.17;23.65;;;3.40;99.90;;;;;;4968228;28;20037;-61
2023/12/08 07:15:56;;;;;;;55.97;23.92;;;3.40;99.90;;;;;;4967949;28;20031;-59
2023/12/08 07:18:21;;;;;;;50.97;23.58;;;3.40;99.90;;;;;;4971423;28;20030;-61
2023/12/08 07:20:47;;;;;;;55.90;24.58;;;3.40;99.90;;;;;;4968364;28;20038;-62
2023/12/08 07:23:13;;;;;;;54.42;24.42;;;3.40;99.90;;;;;;4969302;28;20181;-60
2023/12/08 07:25:38;;;;;;;52.25;22.55;;;3.30;99.90;;;;;;4970363;28;20687;-60
2023/12/08 07:28:04;;;;;;;55.70;25.40;;;3.30;99.90;;;;;;4968858;28;20031;-62
2023/12/08 07:30:29;;;;;;;51.05;23.17;;;3.40;99.90;;;;;;4969993;28;20063;-60
2023/12/08 07:32:55;;;;;;;50.58;23.10;;;3.40;99.90;;;;;;4969355;28;20030;-61
2023/12/08 07:35:20;;;;;;;52.88;23.60;;;3.40;99.90;;;;;;4971231;28;20023;-61
2023/12/08 07:37:46;;;;;;;53.63;23.38;;;3.40;99.90;;;;;;4968601;28;20034;-63
2023/12/08 07:40:11;;;;;;;51.20;23.45;;;3.40;99.90;;;;;;4969714;28;20030;-61
2023/12/08 07:42:38;;;;;;;47.25;21.75;;;3.40;99.90;;;;;;4968175;28;20568;-60
2023/12/08 07:45:05;;;;;;;56.13;25.17;;;3.40;99.90;;;;;;4968536;28;20378;-60
2023/12/08 07:47:30;;;;;;;55.55;21.92;;;3.40;99.90;;;;;;4966218;28;20125;-60
2023/12/08 07:49:56;;;;;;;53.95;24.27;;;3.40;99.90;;;;;;4965063;28;20050;-62
2023/12/08 07:52:22;;;;;;;58.97;24.90;;;3.50;99.90;;;;;;4969597;28;20035;-61
2023/12/08 07:54:47;;;;;;;63.63;26.27;;;3.40;99.90;;;;;;4969800;28;20039;-62
2023/12/08 07:57:13;;;;;;;51.38;23.42;;;3.50;99.90;;;;;;4971571;28;20034;-62
2023/12/08 07:59:38;;;;;;;54.70;23.20;;;3.40;99.90;;;;;;4967618;28;20481;-61
2023/12/08 08:02:04;;;;;;;45.22;21.08;;;3.50;99.90;;;;;;4967030;28;20027;-62
2023/12/08 08:04:30;;;;;;;56.05;24.75;;;3.50;99.90;;;;;;4967759;28;20493;-60
2023/12/08 08:06:56;;;;;;;52.17;23.88;;;3.50;99.90;;;;;;4959575;28;20039;-62
2023/12/08 08:09:22;;;;;;;53.50;22.85;;;3.50;99.90;;;;;;4966698;28;20054;-62
2023/12/08 08:11:47;;;;;;;53.72;24.05;;;3.60;99.90;;;;;;4965831;28;20037;-62
2023/12/08 08:14:13;;;;;;;51.58;22.23;;;3.60;99.90;;;;;;4968798;28;20416;-61
2023/12/08 08:16:39;;;;;;;55.15;23.75;;;3.60;99.90;;;;;;4969500;28;20023;-61
2023/12/08 08:19:04;;;;;;;61.50;26.20;;;3.60;99.90;;;;;;4968530;28;20034;-62
2023/12/08 08:21:30;;;;;;;60.05;25.00;;;3.70;99.90;;;;;;4969101;28;20403;-60
2023/12/08 08:23:55;;;;;;;53.92;25.48;;;3.70;99.90;;;;;;4967759;28;20039;-62
2023/12/08 08:26:21;;;;;;;55.30;24.08;;;3.70;99.90;;;;;;4969518;28;20090;-62
2023/12/08 08:28:46;;;;;;;50.75;23.77;;;3.70;99.90;;;;;;4967104;28;20050;-62
2023/12/08 08:31:16;;;;;;;49.53;23.83;;;3.70;99.90;;;;;;4970678;28;20445;-61
2023/12/08 08:33:42;;;;;;;56.65;23.33;;;3.80;99.90;;;;;;4966456;28;20039;-64
2023/12/08 08:36:08;;;;;;;56.25;24.60;;;3.80;99.90;;;;;;4963821;28;20019;-62
2023/12/08 08:38:33;;;;;;;60.30;25.67;;;3.80;99.90;;;;;;4964329;28;20061;-62
2023/12/08 08:40:59;;;;;;;55.25;24.90;;;3.70;99.90;;;;;;4964189;28;20042;-62
2023/12/08 08:43:24;;;;;;;58.80;23.77;;;3.70;99.90;;;;;;4965808;28;20038;-62
2023/12/08 08:45:50;;;;;;;49.08;22.45;;;3.80;99.90;;;;;;4969193;28;20450;-62
2023/12/08 08:48:16;;;;;;;58.45;24.75;;;3.80;99.90;;;;;;4969761;28;20034;-61
2023/12/08 08:50:41;;;;;;;50.70;23.65;;;3.90;99.90;;;;;;4968171;28;20038;-61
2023/12/08 08:53:07;;;;;;;52.10;23.27;;;3.90;99.90;;;;;;4965354;28;20023;-61
2023/12/08 08:55:32;;;;;;;52.33;23.13;;;3.90;99.90;;;;;;4963272;28;20050;-61
2023/12/08 08:57:58;;;;;;;50.55;23.10;;;3.90;99.90;;;;;;4968801;28;20385;-61
2023/12/08 09:00:26;;;;;;;50.53;23.52;;;3.90;99.90;;;;;;4966562;28;20849;-62
2023/12/08 09:02:51;;;;;;;54.55;23.83;;;3.90;99.90;;;;;;4965323;28;20038;-61
2023/12/08 09:05:20;;;;;;;57.63;23.80;;;4.00;99.90;;;;;;4967906;28;20026;-61
2023/12/08 09:07:46;;;;;;;54.08;23.58;;;4.00;99.90;;;;;;4966745;28;20050;-62
2023/12/08 09:10:12;;;;;;;49.33;21.83;;;4.10;99.90;;;;;;4969203;28;20409;-62
2023/12/08 09:12:37;;;;;;;49.67;23.13;;;4.00;99.90;;;;;;4964004;28;20030;-62
2023/12/08 09:15:03;;;;;;;53.92;23.73;;;4.10;99.90;;;;;;4962034;28;20030;-61
2023/12/08 09:17:30;;;;;;;51.78;23.27;;;4.10;99.90;;;;;;4966395;28;20150;-60
2023/12/08 09:19:55;;;;;;;49.75;22.27;;;4.10;99.90;;;;;;4968229;28;20019;-61
2023/12/08 09:22:21;;;;;;;52.65;23.65;;;4.00;99.90;;;;;;4969461;28;20393;-62
2023/12/08 09:24:46;;;;;;;51.25;23.17;;;4.10;99.90;;;;;;4969778;28;20030;-62
2023/12/08 09:27:12;;;;;;;51.83;23.67;;;4.20;99.90;;;;;;4965197;28;20058;-60
2023/12/08 09:29:38;;;;;;;54.00;25.83;;;4.20;99.90;;;;;;4965006;28;20034;-62
2023/12/08 09:32:03;;;;;;;50.50;23.80;;;4.20;99.90;;;;;;4966340;28;20038;-60
2023/12/08 09:34:29;;;;;;;51.63;22.90;;;4.20;99.90;;;;;;4962579;28;20074;-62
2023/12/08 09:36:55;;;;;;;54.30;24.35;;;4.30;99.90;;;;;;4968647;28;20477;-61
2023/12/08 09:39:21;;;;;;;55.30;23.27;;;4.30;99.90;;;;;;4969497;28;20037;-62
2023/12/08 09:41:49;;;;;;;50.17;23.02;;;4.30;99.90;;;;;;4964916;28;20031;-62
2023/12/08 09:44:14;;;;;;;49.50;21.58;;;4.40;99.90;;;;;;4969459;28;20038;-62
2023/12/08 09:46:46;;;;;;;52.63;22.15;;;4.30;99.90;;;;;;4967403;28;20030;-62
2023/12/08 09:49:27;;;;;;;49.60;22.75;;;4.40;99.90;;;;;;4967405;28;20082;-62
2023/12/08 09:51:53;;;;;;;55.42;23.48;;;4.40;99.90;;;;;;4966956;28;20023;-62
2023/12/08 09:54:19;;;;;;;47.03;23.17;;;4.30;99.90;;;;;;4969746;28;20094;-61
2023/12/08 09:56:48;;;;;;;53.72;21.90;;;4.40;99.90;;;;;;4964512;28;20044;-61
2023/12/08 09:59:16;;;;;;;54.47;23.92;;;4.40;99.90;;;;;;4967688;28;20062;-60
2023/12/08 10:01:41;;;;;;;52.58;23.33;;;4.40;99.90;;;;;;4969308;28;20030;-59
2023/12/08 10:04:07;;;;;;;50.75;25.02;;;4.50;99.90;;;;;;4969176;28;20031;-62
2023/12/08 10:06:32;;;;;;;56.55;23.95;;;4.50;99.90;;;;;;4967359;28;20027;-62
2023/12/08 10:08:59;;;;;;;51.78;23.27;;;4.50;99.90;;;;;;4968111;28;20110;-60
2023/12/08 10:11:24;;;;;;;57.63;25.77;;;4.50;99.90;;;;;;4968727;28;20029;-62
2023/12/08 10:13:51;;;;;;;52.55;25.63;;;4.60;99.90;;;;;;4969318;28;20105;-61
2023/12/08 10:16:16;;;;;;;56.03;25.55;;;4.60;99.90;;;;;;4968832;28;20066;-62
2023/12/08 10:18:42;;;;;;;53.78;24.77;;;4.70;99.90;;;;;;4968244;28;20034;-62
2023/12/08 10:21:17;;;;;;;57.05;24.17;;;4.70;99.90;;;;;;4970396;28;20057;-62
2023/12/08 10:23:44;;;;;;;44.67;23.17;;;4.70;99.90;;;;;;4969934;28;20074;-61
2023/12/08 10:26:12;;;;;;;55.78;25.23;;;4.70;99.90;;;;;;4972075;28;20035;-61
2023/12/08 10:28:39;;;;;;;54.25;24.73;;;4.80;99.90;;;;;;4973010;28;20031;-61
2023/12/08 10:31:05;;;;;;;49.15;23.42;;;4.90;99.90;;;;;;4973023;28;20038;-62
2023/12/08 10:33:31;;;;;;;48.58;23.27;;;4.90;99.90;;;;;;4973225;28;20115;-61
2023/12/08 10:35:56;;;;;;;51.53;22.98;;;4.80;99.90;;;;;;4973087;28;20105;-62
2023/12/08 10:38:23;;;;;;;48.03;22.80;;;4.90;99.90;;;;;;4972385;28;20027;-62
2023/12/08 10:40:50;;;;;;;51.20;22.77;;;5.00;99.90;;;;;;4971783;28;21932;-62
2023/12/08 10:43:25;;;;;;;52.20;23.35;;;5.00;99.90;;;;;;4972095;28;20081;-62
2023/12/08 10:45:51;;;;;;;49.88;23.73;;;5.00;99.90;;;;;;4972493;28;20062;-61
2023/12/08 10:48:22;;;;;;;54.70;22.98;;;5.10;99.90;;;;;;4972579;28;20641;-61
2023/12/08 10:50:52;;;;;;;52.67;22.65;;;5.10;99.90;;;;;;4972069;28;20066;-62
2023/12/08 10:53:19;;;;;;;59.28;24.80;;;5.10;99.90;;;;;;4969419;28;20027;-62
2023/12/08 10:56:03;;;;;;;50.20;21.42;;;5.10;99.90;;;;;;4970025;28;20027;-62
2023/12/08 10:58:33;;;;;;;36.88;16.52;;;5.10;99.90;;;;;;4972541;28;20057;-62
2023/12/08 11:01:01;;;;;;;50.88;21.83;;;5.10;99.90;;;;;;4972247;28;20037;-61
2023/12/08 11:03:32;;;;;;;45.53;21.70;;;5.20;99.90;;;;;;4971269;28;20080;-60
2023/12/08 11:06:03;;;;;;;48.85;22.52;;;5.20;99.90;;;;;;4962360;28;20034;-63
2023/12/08 11:08:30;;;;;;;56.13;21.20;;;5.10;99.90;;;;;;4966820;28;20026;-61
2023/12/08 11:10:57;;;;;;;42.65;19.10;;;5.10;99.90;;;;;;4961037;28;20109;-60
2023/12/08 11:13:30;;;;;;;52.95;22.38;;;5.20;99.90;;;;;;4969388;28;20031;-62
2023/12/08 11:16:24;;;;;;;31.15;14.48;;;5.20;99.90;;;;;;4968297;28;20519;-61
2023/12/08 11:18:50;;;;;;;47.70;20.83;;;5.20;99.90;;;;;;4968334;28;20027;-61
2023/12/08 11:21:17;;;;;;;47.47;22.48;;;5.20;99.90;;;;;;4971688;28;20369;-61
2023/12/08 11:23:44;;;;;;;49.00;21.52;;;5.30;99.90;;;;;;4968698;28;20041;-62
2023/12/08 11:26:42;;;;;;;46.15;21.48;;;5.30;99.90;;;;;;4972063;28;20053;-63
2023/12/08 11:29:30;;;;;;;48.55;20.40;;;5.30;99.90;;;;;;4968375;28;20113;-62
2023/12/08 11:32:23;;;;;;;48.15;20.23;;;5.40;99.90;;;;;;4969488;28;20074;-62
2023/12/08 11:34:52;;;;;;;43.38;20.02;;;5.40;99.90;;;;;;4970367;28;20085;-62
2023/12/08 11:37:17;;;;;;;44.72;19.80;;;5.40;99.90;;;;;;4966585;28;20175;-61
2023/12/08 11:39:44;;;;;;;43.25;19.80;;;5.50;99.90;;;;;;4973222;28;20462;-62
2023/12/08 11:42:12;;;;;;;42.08;19.95;;;5.50;99.90;;;;;;4969197;28;20022;-59
2023/12/08 11:44:40;;;;;;;40.83;19.40;;;5.50;99.90;;;;;;4968750;28;20022;-62
2023/12/08 11:47:07;;;;;;;52.05;20.88;;;5.50;99.90;;;;;;4971026;28;20026;-62
2023/12/08 11:49:35;;;;;;;44.95;20.58;;;5.60;99.90;;;;;;4967872;28;20544;-62
2023/12/08 11:52:10;;;;;;;45.03;21.48;;;5.60;99.90;;;;;;4969910;28;20054;-62
2023/12/08 11:55:03;;;;;;;46.28;20.20;;;5.60;99.90;;;;;;4969521;28;20023;-63
2023/12/08 11:57:29;;;;;;;45.78;20.33;;;5.60;99.90;;;;;;4966277;28;20050;-63
2023/12/08 11:59:55;;;;;;;51.35;22.15;;;5.70;99.90;;;;;;4970954;28;20036;-61
2023/12/08 12:02:21;;;;;;;47.95;21.20;;;5.70;99.90;;;;;;4970416;28;20035;-63
2023/12/08 12:04:48;;;;;;;48.70;21.02;;;5.70;99.90;;;;;;4971405;28;20038;-61
2023/12/08 12:07:18;;;;;;;44.13;21.70;;;5.80;99.90;;;;;;4970733;28;20886;-63
2023/12/08 12:09:47;;;;;;;38.92;19.33;;;5.90;99.90;;;;;;4971290;28;20392;-61
2023/12/08 12:12:19;;;;;;;48.22;19.02;;;5.90;99.90;;;;;;4970578;28;20481;-62
2023/12/08 12:14:49;;;;;;;45.75;20.25;;;6.00;99.90;;;;;;4955376;28;20027;-63
2023/12/08 12:17:15;;;;;;;41.35;19.45;;;6.00;99.90;;;;;;4967463;28;20026;-62
2023/12/08 12:19:40;;;;;;;45.97;20.77;;;6.00;99.90;;;;;;4966320;28;20049;-63
2023/12/08 12:22:06;;;;;;;41.72;19.20;;;6.00;99.90;;;;;;4964709;28;20208;-62
2023/12/08 12:24:31;;;;;;;43.88;20.33;;;5.90;99.90;;;;;;4965406;28;20120;-63
2023/12/08 12:26:57;;;;;;;47.83;21.63;;;5.90;99.90;;;;;;4968352;28;20041;-61
2023/12/08 12:29:23;;;;;;;54.80;21.17;;;5.90;99.90;;;;;;4970801;28;20046;-62
2023/12/08 12:31:49;;;;;;;45.80;22.02;;;5.90;99.90;;;;;;4968653;28;20035;-63
2023/12/08 12:34:15;;;;;;;43.45;19.70;;;6.00;99.90;;;;;;4969163;28;20034;-63